Time;durP1;ratioP1;P1;durP2;ratioP2;P2;SDS_P1;SDS_P2;PMS_P1;PMS_P2;Temp;Humidity;BMP_temperature;BMP_pressure;BME280_temperature;BME280_humidity;BME280_pressure;Samples;Min_cycle;Max_cycle;Signal;HPM_P1;HPM_P2
2020/12/13 00:00:08;;;;;;;0.90;0.90;;;10.60;61.80;;;;;;5075405;28;20239;-69
2020/12/13 00:02:35;;;;;;;0.80;0.80;;;10.60;61.80;;;;;;5075017;28;20282;-64
2020/12/13 00:05:02;;;;;;;0.80;0.80;;;10.60;61.90;;;;;;5076673;28;20220;-63
2020/12/13 00:07:28;;;;;;;1.00;1.00;;;10.60;61.80;;;;;;5078829;28;20208;-64
2020/12/13 00:09:55;;;;;;;0.70;0.70;;;10.60;61.60;;;;;;5074791;28;20284;-64
2020/12/13 00:12:21;;;;;;;0.70;0.70;;;10.60;62.30;;;;;;5072350;28;20213;-64
2020/12/13 00:14:48;;;;;;;0.90;0.90;;;10.60;61.50;;;;;;5069255;28;20216;-64
2020/12/13 00:17:14;;;;;;;0.77;0.77;;;10.60;61.50;;;;;;5065111;28;20229;-64
2020/12/13 00:19:43;;;;;;;0.60;0.60;;;10.60;61.50;;;;;;5061916;28;20212;-66
2020/12/13 00:22:10;;;;;;;0.60;0.60;;;10.60;61.50;;;;;;5073567;28;20209;-64
2020/12/13 00:24:36;;;;;;;0.63;0.60;;;10.60;61.50;;;;;;5094157;22;20603;-61
2020/12/13 00:27:03;;;;;;;0.70;0.70;;;10.60;61.50;;;;;;5073881;28;20196;-62
2020/12/13 00:29:29;;;;;;;0.80;0.70;;;10.60;61.50;;;;;;5064242;28;20212;-61
2020/12/13 00:31:55;;;;;;;0.80;0.80;;;10.60;61.40;;;;;;5059228;28;20217;-61
2020/12/13 00:34:22;;;;;;;0.80;0.80;;;10.60;61.30;;;;;;5061553;28;20542;-61
2020/12/13 00:36:51;;;;;;;0.77;0.77;;;10.70;61.30;;;;;;5062035;28;20201;-62
2020/12/13 00:39:17;;;;;;;1.10;1.03;;;10.70;61.30;;;;;;5063141;28;20296;-60
2020/12/13 00:41:49;;;;;;;0.80;0.80;;;10.70;61.30;;;;;;5067471;28;20201;-61
2020/12/13 00:44:16;;;;;;;0.80;0.80;;;10.70;61.30;;;;;;5075116;28;20239;-62
2020/12/13 00:46:42;;;;;;;0.70;0.70;;;10.70;61.20;;;;;;5074948;28;20241;-61
2020/12/13 00:49:09;;;;;;;0.60;0.60;;;10.70;61.20;;;;;;5076683;28;20204;-63
2020/12/13 00:51:35;;;;;;;0.60;0.60;;;10.60;61.10;;;;;;5072858;28;20212;-61
2020/12/13 00:54:03;;;;;;;1.17;0.60;;;10.70;61.30;;;;;;5077506;28;20216;-62
2020/12/13 00:56:29;;;;;;;0.60;0.60;;;10.70;61.30;;;;;;5075363;28;20205;-62
2020/12/13 00:58:55;;;;;;;0.60;0.60;;;10.70;61.20;;;;;;5074586;28;20274;-64
2020/12/13 01:01:22;;;;;;;0.50;0.50;;;10.70;61.10;;;;;;5073167;28;20201;-62
2020/12/13 01:03:49;;;;;;;0.60;0.60;;;10.70;61.00;;;;;;5077066;28;20200;-61
2020/12/13 01:06:21;;;;;;;0.60;0.60;;;10.70;61.00;;;;;;5075676;28;20204;-61
2020/12/13 01:08:48;;;;;;;0.60;0.60;;;10.70;61.00;;;;;;5076792;28;20307;-61
2020/12/13 01:11:23;;;;;;;0.60;0.60;;;10.70;61.00;;;;;;5065309;28;20556;-63
2020/12/13 01:13:49;;;;;;;0.83;0.53;;;10.70;61.10;;;;;;5071818;28;20253;-61
2020/12/13 01:16:17;;;;;;;0.80;0.80;;;10.70;61.20;;;;;;5075581;28;20205;-61
2020/12/13 01:18:44;;;;;;;0.50;0.50;;;10.70;61.40;;;;;;5076437;28;20224;-61
2020/12/13 01:21:18;;;;;;;0.60;0.60;;;10.70;61.50;;;;;;5074231;28;20674;-62
2020/12/13 01:23:45;;;;;;;0.40;0.40;;;10.70;61.70;;;;;;5073628;28;20199;-62
2020/12/13 01:26:13;;;;;;;0.50;0.50;;;10.70;61.60;;;;;;5074279;28;20213;-63
2020/12/13 01:28:40;;;;;;;0.50;0.50;;;10.70;61.80;;;;;;5075809;28;20204;-62
2020/12/13 01:31:08;;;;;;;1.47;0.60;;;10.70;62.10;;;;;;5072865;28;20236;-61
2020/12/13 01:33:36;;;;;;;0.60;0.60;;;10.70;62.20;;;;;;5071160;28;20213;-63
2020/12/13 01:36:02;;;;;;;0.60;0.60;;;10.60;62.30;;;;;;5076429;28;20221;-63
2020/12/13 01:38:28;;;;;;;0.50;0.50;;;10.60;62.40;;;;;;5076967;28;20250;-63
2020/12/13 01:40:57;;;;;;;0.60;0.60;;;10.60;62.50;;;;;;5074669;28;20595;-63
2020/12/13 01:43:23;;;;;;;0.50;0.50;;;10.60;62.70;;;;;;5076219;28;20209;-62
2020/12/13 01:45:50;;;;;;;0.50;0.50;;;10.60;62.70;;;;;;5076576;28;20221;-63
2020/12/13 01:48:17;;;;;;;0.57;0.57;;;10.60;62.80;;;;;;5074832;28;20209;-62
2020/12/13 01:50:49;;;;;;;0.50;0.50;;;10.50;62.80;;;;;;5073725;28;20292;-63
2020/12/13 01:53:24;;;;;;;0.40;0.40;;;10.50;63.00;;;;;;5074652;28;20209;-62
2020/12/13 01:55:57;;;;;;;0.50;0.50;;;10.50;63.20;;;;;;5077316;28;20239;-63
2020/12/13 01:58:27;;;;;;;0.43;0.43;;;10.50;64.00;;;;;;5076275;28;20259;-64
2020/12/13 02:00:58;;;;;;;0.40;0.40;;;10.50;63.30;;;;;;5075988;28;20200;-62
2020/12/13 02:03:30;;;;;;;0.40;0.40;;;10.40;63.40;;;;;;5079469;28;20288;-61
2020/12/13 02:06:03;;;;;;;0.50;0.50;;;10.40;63.40;;;;;;5079335;28;20720;-62
2020/12/13 02:08:39;;;;;;;0.50;0.50;;;10.40;63.30;;;;;;5079458;28;20197;-62
2020/12/13 02:11:07;;;;;;;0.30;0.30;;;10.40;63.50;;;;;;5078927;28;20219;-63
2020/12/13 02:13:34;;;;;;;0.37;0.37;;;10.40;63.40;;;;;;5077624;28;20203;-64
2020/12/13 02:16:01;;;;;;;0.50;0.50;;;10.40;63.50;;;;;;5077621;28;20290;-63
2020/12/13 02:18:28;;;;;;;0.50;0.50;;;10.40;63.50;;;;;;5079280;28;20235;-63
2020/12/13 02:20:56;;;;;;;0.40;0.40;;;10.40;63.50;;;;;;5077225;28;20208;-62
2020/12/13 02:23:23;;;;;;;0.40;0.40;;;10.40;63.70;;;;;;5077727;28;20227;-62
2020/12/13 02:25:50;;;;;;;0.40;0.40;;;10.40;63.80;;;;;;5078397;28;20247;-63
2020/12/13 02:28:17;;;;;;;0.43;0.43;;;10.40;63.80;;;;;;5079752;28;20235;-63
2020/12/13 02:30:44;;;;;;;0.50;0.50;;;10.40;64.00;;;;;;5075785;28;20209;-61
2020/12/13 02:33:10;;;;;;;0.60;0.60;;;10.40;64.10;;;;;;5075987;28;20208;-61
2020/12/13 02:35:37;;;;;;;0.60;0.60;;;10.40;64.20;;;;;;5072634;28;20232;-62
2020/12/13 02:38:03;;;;;;;0.40;0.40;;;10.40;64.20;;;;;;5078740;28;20227;-62
2020/12/13 02:40:31;;;;;;;0.43;0.43;;;10.40;64.20;;;;;;5078866;28;20204;-62
2020/12/13 02:42:58;;;;;;;0.50;0.50;;;10.40;64.20;;;;;;5076078;28;20212;-62
2020/12/13 02:45:24;;;;;;;0.63;0.57;;;10.50;64.10;;;;;;5078540;28;20221;-62
2020/12/13 02:47:51;;;;;;;0.40;0.40;;;10.40;64.10;;;;;;5078002;28;20232;-62
2020/12/13 02:50:17;;;;;;;0.60;0.60;;;10.50;64.20;;;;;;5075593;28;20212;-62
2020/12/13 02:52:43;;;;;;;0.60;0.60;;;10.50;64.30;;;;;;5077706;28;20212;-62
2020/12/13 02:55:10;;;;;;;0.50;0.50;;;10.50;64.40;;;;;;5077270;28;20228;-63
2020/12/13 02:57:40;;;;;;;0.50;0.50;;;10.50;64.30;;;;;;5077301;28;20235;-62
2020/12/13 03:00:07;;;;;;;0.50;0.50;;;10.50;64.40;;;;;;5076276;28;20685;-62
2020/12/13 03:02:34;;;;;;;0.50;0.50;;;10.50;64.30;;;;;;5078628;28;20669;-63
2020/12/13 03:05:00;;;;;;;0.60;0.60;;;10.50;64.40;;;;;;5076835;28;20229;-63
2020/12/13 03:07:27;;;;;;;0.70;0.60;;;10.50;64.40;;;;;;5078655;28;20209;-62
2020/12/13 03:09:53;;;;;;;0.40;0.40;;;10.50;64.40;;;;;;5075273;28;20208;-62
2020/12/13 03:12:19;;;;;;;0.60;0.60;;;10.50;64.30;;;;;;5075716;28;20204;-63
2020/12/13 03:14:47;;;;;;;0.60;0.60;;;10.50;64.30;;;;;;5075800;28;20220;-63
2020/12/13 03:17:13;;;;;;;0.50;0.50;;;10.50;64.30;;;;;;5077110;28;20589;-63
2020/12/13 03:19:40;;;;;;;0.60;0.60;;;10.50;64.30;;;;;;5077737;28;20215;-63
2020/12/13 03:22:06;;;;;;;0.50;0.50;;;10.50;64.30;;;;;;5072885;28;20201;-64
2020/12/13 03:24:32;;;;;;;0.47;0.47;;;10.50;64.40;;;;;;5076987;28;20239;-63
2020/12/13 03:26:59;;;;;;;0.50;0.50;;;10.50;64.30;;;;;;5077924;28;20219;-63
2020/12/13 03:29:25;;;;;;;0.60;0.60;;;10.50;64.30;;;;;;5075394;28;20219;-63
2020/12/13 03:31:52;;;;;;;1.13;0.50;;;10.50;64.20;;;;;;5075706;28;20216;-63
2020/12/13 03:34:19;;;;;;;0.50;0.50;;;10.50;64.20;;;;;;5075278;28;20220;-66
2020/12/13 03:36:45;;;;;;;0.90;0.63;;;10.50;64.20;;;;;;5076049;28;20208;-63
2020/12/13 03:39:12;;;;;;;0.47;0.47;;;10.60;64.20;;;;;;5077456;28;20232;-63
2020/12/13 03:41:38;;;;;;;0.70;0.70;;;10.60;64.10;;;;;;5074175;28;20207;-63
2020/12/13 03:44:05;;;;;;;0.60;0.60;;;10.60;64.20;;;;;;5075074;28;20232;-63
2020/12/13 03:46:31;;;;;;;0.60;0.60;;;10.60;64.20;;;;;;5078028;28;20581;-63
2020/12/13 03:48:58;;;;;;;0.60;0.60;;;10.60;64.20;;;;;;5078693;28;20298;-63
2020/12/13 03:51:24;;;;;;;0.60;0.60;;;10.60;64.20;;;;;;5076398;28;20303;-63
2020/12/13 03:53:51;;;;;;;0.60;0.60;;;10.60;64.10;;;;;;5075220;28;20211;-62
2020/12/13 03:56:17;;;;;;;0.70;0.70;;;10.60;64.10;;;;;;5077473;28;20204;-63
2020/12/13 03:58:44;;;;;;;0.70;0.70;;;10.70;64.00;;;;;;5072163;28;20221;-63
2020/12/13 04:01:10;;;;;;;0.50;0.50;;;10.60;63.90;;;;;;5075921;28;20197;-62
2020/12/13 04:03:36;;;;;;;0.70;0.70;;;10.60;64.00;;;;;;5076096;28;20211;-64
2020/12/13 04:06:03;;;;;;;0.70;0.70;;;10.70;64.00;;;;;;5074317;28;20229;-62
2020/12/13 04:08:30;;;;;;;0.80;0.70;;;10.60;64.00;;;;;;5077549;28;20207;-64
2020/12/13 04:10:56;;;;;;;1.50;1.00;;;10.70;64.00;;;;;;5077186;28;20212;-63
2020/12/13 04:13:23;;;;;;;0.80;0.80;;;10.70;64.00;;;;;;5076504;28;20212;-63
2020/12/13 04:15:49;;;;;;;0.67;0.60;;;10.70;64.00;;;;;;5074442;28;20735;-63
2020/12/13 04:18:16;;;;;;;0.73;0.73;;;10.60;64.00;;;;;;5076482;28;20228;-63
2020/12/13 04:20:42;;;;;;;0.80;0.80;;;10.70;64.00;;;;;;5076018;28;20192;-63
2020/12/13 04:23:09;;;;;;;0.90;0.80;;;10.70;64.00;;;;;;5075826;28;20662;-63
2020/12/13 04:25:36;;;;;;;0.70;0.70;;;10.70;64.00;;;;;;5073071;28;20240;-63
2020/12/13 04:28:03;;;;;;;1.67;0.80;;;10.60;64.00;;;;;;5073724;28;20204;-63
2020/12/13 04:30:30;;;;;;;0.90;0.90;;;10.70;64.00;;;;;;5073421;28;20212;-65
2020/12/13 04:32:56;;;;;;;0.70;0.70;;;10.70;64.00;;;;;;5075782;28;20557;-62
2020/12/13 04:35:22;;;;;;;0.90;0.90;;;10.60;64.00;;;;;;5073917;28;20648;-62
2020/12/13 04:37:49;;;;;;;0.63;0.63;;;10.70;64.10;;;;;;5075222;28;20232;-64
2020/12/13 04:40:16;;;;;;;1.20;0.80;;;10.70;64.10;;;;;;5077978;28;20204;-62
2020/12/13 04:42:42;;;;;;;0.93;0.93;;;10.70;64.10;;;;;;5074660;28;20220;-62
2020/12/13 04:45:10;;;;;;;1.00;1.00;;;10.70;64.10;;;;;;5075449;28;20235;-64
2020/12/13 04:47:49;;;;;;;0.90;0.90;;;10.70;64.20;;;;;;5076539;28;20217;-63
2020/12/13 04:50:20;;;;;;;0.83;0.83;;;10.70;64.10;;;;;;5075843;28;20220;-63
2020/12/13 04:52:47;;;;;;;0.80;0.80;;;10.70;64.00;;;;;;5074471;28;20219;-62
2020/12/13 04:55:15;;;;;;;1.20;1.13;;;10.70;64.00;;;;;;5075982;28;20224;-62
2020/12/13 04:57:42;;;;;;;0.97;0.97;;;10.70;64.00;;;;;;5074682;28;20227;-63
2020/12/13 05:00:08;;;;;;;0.90;0.90;;;10.70;64.00;;;;;;5075820;28;20215;-63
2020/12/13 05:02:35;;;;;;;0.90;0.90;;;10.70;63.90;;;;;;5075835;28;20238;-63
2020/12/13 05:05:01;;;;;;;0.90;0.90;;;10.70;63.90;;;;;;5072450;28;20228;-63
2020/12/13 05:07:28;;;;;;;1.00;1.00;;;10.70;64.00;;;;;;5073392;28;20209;-62
2020/12/13 05:09:54;;;;;;;1.00;1.00;;;10.70;64.00;;;;;;5074166;28;20985;-63
2020/12/13 05:12:24;;;;;;;1.10;1.10;;;10.70;64.00;;;;;;5074655;28;20196;-63
2020/12/13 05:14:50;;;;;;;1.30;1.20;;;10.80;64.30;;;;;;5074757;28;20265;-63
2020/12/13 05:17:17;;;;;;;1.00;1.00;;;10.80;64.20;;;;;;5075970;28;20212;-63
2020/12/13 05:19:43;;;;;;;1.33;1.23;;;10.80;64.20;;;;;;5073669;28;20231;-63
2020/12/13 05:22:10;;;;;;;1.30;1.20;;;10.80;64.30;;;;;;5075160;28;20235;-63
2020/12/13 05:24:37;;;;;;;1.50;1.40;;;10.80;64.30;;;;;;5075082;28;20243;-63
2020/12/13 05:27:06;;;;;;;1.50;1.40;;;10.80;64.30;;;;;;5074914;28;20201;-63
2020/12/13 05:29:37;;;;;;;1.37;1.27;;;10.80;64.40;;;;;;5070502;28;20201;-63
2020/12/13 05:32:13;;;;;;;1.77;1.67;;;10.80;64.40;;;;;;5075561;28;20719;-63
2020/12/13 05:34:44;;;;;;;1.50;1.40;;;10.80;64.50;;;;;;5078658;28;20704;-63
2020/12/13 05:37:15;;;;;;;1.80;1.70;;;10.70;64.30;;;;;;5080295;28;20217;-63
2020/12/13 05:39:50;;;;;;;1.47;1.37;;;10.80;64.30;;;;;;5082580;28;20228;-64
2020/12/13 05:42:35;;;;;;;1.60;1.50;;;10.80;64.50;;;;;;5079796;28;20207;-63
2020/12/13 05:45:21;;;;;;;1.93;1.40;;;10.70;64.60;;;;;;5082668;28;20232;-63
2020/12/13 05:53:18;;;;;;;1.33;1.27;;;10.70;64.70;;;;;;5080761;28;20242;-64
2020/12/13 05:55:44;;;;;;;1.70;1.60;;;10.70;64.90;;;;;;5078056;28;20220;-64
2020/12/13 05:58:11;;;;;;;1.63;1.53;;;10.70;64.80;;;;;;5080566;28;20637;-64
2020/12/13 06:00:40;;;;;;;1.80;1.70;;;10.70;64.80;;;;;;5079607;28;20203;-63
2020/12/13 06:03:06;;;;;;;1.63;1.53;;;10.70;64.80;;;;;;5079048;28;20324;-63
2020/12/13 06:05:36;;;;;;;1.60;1.50;;;10.70;64.90;;;;;;5077598;28;20234;-64
2020/12/13 06:08:04;;;;;;;2.00;1.90;;;10.70;65.10;;;;;;5081560;28;20200;-64
2020/12/13 06:10:35;;;;;;;1.80;1.70;;;10.70;65.10;;;;;;5079953;28;20286;-62
2020/12/13 06:13:04;;;;;;;1.77;1.67;;;10.70;65.10;;;;;;5080915;28;20590;-64
2020/12/13 06:15:33;;;;;;;1.60;1.50;;;10.70;65.10;;;;;;5078695;28;20231;-64
2020/12/13 06:18:02;;;;;;;1.80;1.70;;;10.70;65.10;;;;;;5081080;28;20315;-64
2020/12/13 06:20:32;;;;;;;1.67;1.57;;;10.70;65.10;;;;;;5080916;28;20205;-64
2020/12/13 06:23:02;;;;;;;1.57;1.47;;;10.70;65.10;;;;;;5080570;28;20216;-64
2020/12/13 06:25:29;;;;;;;1.77;1.67;;;10.70;65.20;;;;;;5078723;28;20323;-64
2020/12/13 06:27:56;;;;;;;2.13;2.03;;;10.70;65.20;;;;;;5081084;28;20215;-63
2020/12/13 06:30:22;;;;;;;1.73;1.63;;;10.70;65.10;;;;;;5078401;28;20215;-64
2020/12/13 06:32:51;;;;;;;1.60;1.50;;;10.70;65.20;;;;;;5079193;28;20209;-63
2020/12/13 06:35:20;;;;;;;1.70;1.60;;;10.70;65.20;;;;;;5081710;28;20228;-63
2020/12/13 06:37:48;;;;;;;1.60;1.50;;;10.70;65.30;;;;;;5081148;28;20211;-64
2020/12/13 06:40:19;;;;;;;1.90;1.80;;;10.70;65.30;;;;;;5079217;28;20212;-63
2020/12/13 06:42:48;;;;;;;1.70;1.60;;;10.70;65.30;;;;;;5078859;28;20205;-63
2020/12/13 06:45:17;;;;;;;1.80;1.70;;;10.70;65.30;;;;;;5078470;28;20220;-64
2020/12/13 06:47:46;;;;;;;1.63;1.53;;;10.80;65.40;;;;;;5078939;28;20207;-63
2020/12/13 06:50:22;;;;;;;1.70;1.60;;;10.80;65.40;;;;;;5075687;28;20291;-64
2020/12/13 06:52:51;;;;;;;1.63;1.53;;;10.70;65.50;;;;;;5077700;28;20204;-63
2020/12/13 06:55:18;;;;;;;1.83;1.70;;;10.80;65.40;;;;;;5076392;28;20286;-64
2020/12/13 06:57:46;;;;;;;1.90;1.80;;;10.80;65.30;;;;;;5078122;28;20200;-63
2020/12/13 07:00:13;;;;;;;1.83;1.73;;;10.80;65.40;;;;;;5078444;28;20204;-63
2020/12/13 07:02:56;;;;;;;2.00;1.90;;;10.80;65.40;;;;;;5077965;28;20209;-63
2020/12/13 07:05:44;;;;;;;2.10;2.00;;;10.80;65.60;;;;;;5076291;28;20247;-64
2020/12/13 07:10:51;;;;;;;1.97;1.87;;;10.80;65.40;;;;;;5035534;28;20221;-66
2020/12/13 07:13:21;;;;;;;1.80;1.70;;;10.80;65.20;;;;;;5045599;28;20201;-66
2020/12/13 07:15:49;;;;;;;2.00;1.90;;;10.80;65.20;;;;;;5044766;28;20375;-66
2020/12/13 07:18:18;;;;;;;2.20;2.10;;;10.80;65.10;;;;;;5042570;28;20882;-66
2020/12/13 07:20:46;;;;;;;1.87;1.77;;;10.80;65.20;;;;;;5039784;28;20271;-66
2020/12/13 07:23:12;;;;;;;1.90;1.80;;;10.90;65.30;;;;;;5045061;28;20241;-66
2020/12/13 07:25:39;;;;;;;1.93;1.83;;;10.90;65.20;;;;;;5043222;28;20236;-66
2020/12/13 07:28:07;;;;;;;1.90;1.80;;;10.90;65.10;;;;;;5045738;28;20213;-67
2020/12/13 07:30:37;;;;;;;2.20;2.10;;;10.90;65.20;;;;;;5042025;28;20232;-67
2020/12/13 07:33:04;;;;;;;2.23;2.13;;;10.90;65.30;;;;;;5046020;28;20323;-66
2020/12/13 07:35:30;;;;;;;2.40;2.20;;;10.90;65.20;;;;;;5042921;28;20214;-66
2020/12/13 07:37:58;;;;;;;2.17;2.00;;;11.00;65.20;;;;;;5043997;28;20206;-66
2020/12/13 07:40:24;;;;;;;2.07;1.97;;;11.00;65.20;;;;;;5045739;28;20233;-66
2020/12/13 07:42:59;;;;;;;2.57;2.40;;;11.00;65.10;;;;;;5046257;28;20210;-66
2020/12/13 07:45:26;;;;;;;2.03;1.93;;;11.00;65.30;;;;;;5042599;28;20209;-66
2020/12/13 07:48:00;;;;;;;2.20;2.10;;;11.00;65.10;;;;;;5044493;28;20403;-66
2020/12/13 07:50:29;;;;;;;2.13;2.03;;;11.00;65.10;;;;;;5042199;28;20291;-67
2020/12/13 07:52:55;;;;;;;2.07;1.97;;;11.00;65.00;;;;;;5043073;28;20210;-66
2020/12/13 07:55:22;;;;;;;2.43;2.27;;;11.00;65.00;;;;;;5046119;28;20252;-66
2020/12/13 07:57:49;;;;;;;2.17;2.07;;;11.10;65.00;;;;;;5042880;28;20599;-67
2020/12/13 08:00:16;;;;;;;2.40;2.27;;;11.10;65.00;;;;;;5040544;28;20230;-66
2020/12/13 08:02:43;;;;;;;2.30;2.20;;;11.10;65.10;;;;;;5042372;28;20600;-66
2020/12/13 08:05:11;;;;;;;2.40;2.30;;;11.10;65.10;;;;;;5044122;28;20654;-65
2020/12/13 08:07:38;;;;;;;2.53;2.33;;;11.10;65.10;;;;;;5041663;28;20260;-68
2020/12/13 08:10:05;;;;;;;2.77;2.57;;;11.10;65.10;;;;;;5043765;28;20600;-66
2020/12/13 08:12:38;;;;;;;2.40;2.30;;;11.10;65.10;;;;;;5041368;28;20260;-66
2020/12/13 08:15:05;;;;;;;2.20;2.10;;;11.20;65.10;;;;;;5045009;28;20208;-67
2020/12/13 08:17:32;;;;;;;2.40;2.30;;;11.20;65.00;;;;;;5042433;28;20229;-65
2020/12/13 08:20:04;;;;;;;2.00;1.90;;;11.20;65.00;;;;;;5043442;28;20230;-67
2020/12/13 08:22:34;;;;;;;3.00;2.10;;;11.20;65.00;;;;;;5044916;28;20202;-66
2020/12/13 08:25:04;;;;;;;2.73;2.53;;;11.20;64.90;;;;;;5042407;28;20264;-67
2020/12/13 08:27:36;;;;;;;2.13;2.03;;;11.20;64.80;;;;;;5040587;28;20220;-68
2020/12/13 08:30:06;;;;;;;2.33;2.23;;;11.20;64.80;;;;;;5043571;28;20218;-67
2020/12/13 08:32:37;;;;;;;2.30;2.20;;;11.20;64.80;;;;;;5043196;28;20209;-67
2020/12/13 08:35:11;;;;;;;2.57;2.37;;;11.30;64.80;;;;;;5043611;28;20296;-66
2020/12/13 08:37:38;;;;;;;2.17;2.07;;;11.30;64.60;;;;;;5043156;28;20213;-67
2020/12/13 08:40:08;;;;;;;2.70;2.50;;;11.30;64.60;;;;;;5040053;28;20225;-66
2020/12/13 08:42:36;;;;;;;2.60;2.40;;;11.30;64.60;;;;;;5043519;28;20202;-65
2020/12/13 08:45:03;;;;;;;2.60;2.40;;;11.30;64.50;;;;;;5037509;28;20801;-66
2020/12/13 08:47:32;;;;;;;2.57;2.37;;;11.30;64.40;;;;;;5041873;28;20206;-67
2020/12/13 08:49:59;;;;;;;2.80;2.60;;;11.30;64.50;;;;;;5044083;28;20312;-66
2020/12/13 08:52:33;;;;;;;2.03;1.93;;;11.40;64.50;;;;;;5042223;28;20678;-67
2020/12/13 08:55:04;;;;;;;2.10;2.00;;;11.40;64.50;;;;;;5043933;28;20264;-67
2020/12/13 08:57:32;;;;;;;2.13;2.03;;;11.40;64.60;;;;;;5042409;28;20214;-66
2020/12/13 09:00:08;;;;;;;2.50;2.40;;;11.50;64.50;;;;;;5042495;28;20221;-66
2020/12/13 09:02:35;;;;;;;2.10;2.00;;;11.50;64.50;;;;;;5044201;28;20212;-66
2020/12/13 09:05:04;;;;;;;1.90;1.80;;;11.50;64.40;;;;;;5042740;28;20206;-66
2020/12/13 09:07:33;;;;;;;2.20;2.00;;;11.50;64.40;;;;;;5044534;28;20206;-66
2020/12/13 09:10:12;;;;;;;1.90;1.80;;;11.50;64.30;;;;;;5044663;28;20237;-65
2020/12/13 09:12:40;;;;;;;1.93;1.83;;;11.50;64.20;;;;;;5044038;28;20301;-66
2020/12/13 09:15:12;;;;;;;1.80;1.70;;;11.50;64.20;;;;;;5045987;28;21118;-66
2020/12/13 09:17:39;;;;;;;1.90;1.80;;;11.50;64.10;;;;;;5042073;28;20209;-65
2020/12/13 09:20:07;;;;;;;1.83;1.73;;;11.50;64.10;;;;;;5045861;28;20241;-67
2020/12/13 09:22:34;;;;;;;1.60;1.50;;;11.60;64.10;;;;;;5043877;28;20209;-65
2020/12/13 09:25:01;;;;;;;1.57;1.47;;;11.60;64.00;;;;;;5038770;28;20576;-66
2020/12/13 09:27:28;;;;;;;1.63;1.53;;;11.60;63.90;;;;;;5042838;28;20205;-66
2020/12/13 09:29:56;;;;;;;1.60;1.50;;;11.60;63.80;;;;;;5040162;28;20221;-66
2020/12/13 09:32:23;;;;;;;1.60;1.50;;;11.70;63.80;;;;;;5039967;28;20217;-67
2020/12/13 09:34:50;;;;;;;1.73;1.63;;;11.70;63.70;;;;;;5042549;28;20713;-66
2020/12/13 09:37:19;;;;;;;1.70;1.60;;;11.70;63.60;;;;;;5043654;28;20217;-65
2020/12/13 09:39:46;;;;;;;1.53;1.43;;;11.70;63.50;;;;;;5043096;28;20222;-65
2020/12/13 09:42:14;;;;;;;1.17;1.17;;;11.70;63.40;;;;;;5039891;28;20205;-66
2020/12/13 09:44:44;;;;;;;1.60;1.50;;;11.80;63.50;;;;;;5037652;28;20296;-70
2020/12/13 09:47:10;;;;;;;1.33;1.23;;;11.80;63.50;;;;;;5037841;28;20669;-65
2020/12/13 09:49:38;;;;;;;1.53;1.43;;;11.80;63.50;;;;;;5038922;28;20230;-66
2020/12/13 09:52:04;;;;;;;1.70;1.40;;;11.80;63.40;;;;;;5041171;28;20205;-66
2020/12/13 09:54:32;;;;;;;1.20;1.10;;;11.80;63.30;;;;;;5042309;28;20209;-63
2020/12/13 09:56:58;;;;;;;1.50;1.40;;;11.80;63.40;;;;;;5041596;28;20228;-66
2020/12/13 09:59:26;;;;;;;1.13;1.13;;;11.80;63.70;;;;;;5042377;28;20240;-64
2020/12/13 10:01:52;;;;;;;1.10;1.10;;;11.70;63.80;;;;;;5035578;28;20206;-64
2020/12/13 10:04:20;;;;;;;1.23;1.13;;;11.70;63.90;;;;;;5042253;28;20210;-64
2020/12/13 10:07:02;;;;;;;1.30;1.20;;;11.70;63.80;;;;;;5040050;28;20209;-65
2020/12/13 10:09:28;;;;;;;1.30;1.20;;;11.70;63.90;;;;;;5043225;28;20806;-64
2020/12/13 10:11:57;;;;;;;1.00;1.00;;;11.70;63.80;;;;;;5043352;28;20241;-66
2020/12/13 10:14:24;;;;;;;1.30;1.20;;;11.70;63.80;;;;;;5043264;28;20206;-69
2020/12/13 10:16:51;;;;;;;1.37;1.27;;;11.70;63.70;;;;;;5043944;28;20564;-69
2020/12/13 10:19:18;;;;;;;1.30;1.20;;;11.80;63.70;;;;;;5043047;28;20297;-66
2020/12/13 10:21:44;;;;;;;1.10;1.10;;;11.80;63.60;;;;;;5043417;28;20201;-66
2020/12/13 10:24:12;;;;;;;1.90;1.10;;;11.80;63.50;;;;;;5043181;28;20243;-66
2020/12/13 10:26:39;;;;;;;1.30;1.20;;;11.80;64.30;;;;;;5048119;28;20221;-64
2020/12/13 10:29:07;;;;;;;1.17;1.00;;;11.80;63.50;;;;;;5044860;28;20218;-66
2020/12/13 10:31:36;;;;;;;1.10;1.00;;;11.90;63.50;;;;;;5042752;28;20214;-69
2020/12/13 10:34:06;;;;;;;0.97;0.93;;;11.90;63.50;;;;;;5047214;28;20686;-70
2020/12/13 10:36:34;;;;;;;0.90;0.90;;;11.90;63.40;;;;;;5047318;28;20206;-70
2020/12/13 10:39:03;;;;;;;1.10;1.00;;;12.00;63.30;;;;;;5042382;28;20609;-68
2020/12/13 10:41:31;;;;;;;1.20;0.97;;;12.00;63.30;;;;;;5045184;28;20293;-68
2020/12/13 10:43:59;;;;;;;1.10;1.00;;;12.00;63.30;;;;;;5047865;28;20213;-69
2020/12/13 10:46:25;;;;;;;1.00;1.00;;;12.10;63.30;;;;;;5046012;28;20675;-69
2020/12/13 10:48:52;;;;;;;0.77;0.77;;;12.10;63.20;;;;;;5045678;28;20237;-68
2020/12/13 10:51:19;;;;;;;0.70;0.70;;;12.20;63.10;;;;;;5047112;28;20213;-68
2020/12/13 10:53:47;;;;;;;1.00;0.80;;;12.20;63.00;;;;;;5043531;28;20500;-68
2020/12/13 10:56:14;;;;;;;0.87;0.87;;;12.30;62.90;;;;;;5046506;28;20210;-66
2020/12/13 10:58:43;;;;;;;0.80;0.80;;;12.30;62.70;;;;;;5043855;28;20226;-66
2020/12/13 11:01:10;;;;;;;0.97;0.97;;;12.40;62.60;;;;;;5042679;28;20209;-65
2020/12/13 11:03:37;;;;;;;1.20;1.10;;;12.40;62.40;;;;;;5048453;28;20718;-66
2020/12/13 11:06:04;;;;;;;1.00;0.90;;;12.40;62.30;;;;;;5051000;28;20221;-65
2020/12/13 11:08:30;;;;;;;0.80;0.80;;;12.40;62.90;;;;;;5047056;28;20194;-63
2020/12/13 11:10:57;;;;;;;0.90;0.90;;;12.50;62.10;;;;;;5044991;28;20201;-65
2020/12/13 11:13:24;;;;;;;0.90;0.90;;;12.50;62.00;;;;;;5045866;28;20205;-64
2020/12/13 11:15:51;;;;;;;0.90;0.90;;;12.60;62.00;;;;;;5038798;28;20587;-65
2020/12/13 11:18:19;;;;;;;1.17;0.97;;;12.60;61.90;;;;;;5038748;28;20209;-64
2020/12/13 11:20:46;;;;;;;0.93;0.93;;;12.60;61.80;;;;;;5038270;28;20209;-66
2020/12/13 11:23:12;;;;;;;1.10;1.00;;;12.60;61.70;;;;;;5042285;28;20818;-66
2020/12/13 11:25:39;;;;;;;1.27;1.00;;;12.60;61.60;;;;;;5042888;28;20705;-65
2020/12/13 11:28:06;;;;;;;1.00;0.90;;;12.70;61.60;;;;;;5040416;28;20213;-64
2020/12/13 11:30:33;;;;;;;2.00;1.10;;;12.70;61.50;;;;;;5038250;28;20694;-63
2020/12/13 11:33:00;;;;;;;1.10;1.00;;;12.70;61.50;;;;;;5041700;28;20218;-66
2020/12/13 11:35:27;;;;;;;0.83;0.83;;;12.80;61.60;;;;;;5045096;28;20728;-64
2020/12/13 11:37:53;;;;;;;1.00;0.90;;;12.80;61.60;;;;;;5043825;28;20566;-64
2020/12/13 11:40:20;;;;;;;1.20;1.10;;;12.70;61.60;;;;;;5043877;28;20588;-65
2020/12/13 11:42:46;;;;;;;0.80;0.80;;;12.70;61.60;;;;;;5042794;28;20214;-65
2020/12/13 11:45:13;;;;;;;1.83;0.90;;;12.70;61.80;;;;;;5041317;28;20295;-65
2020/12/13 11:47:39;;;;;;;0.83;0.80;;;12.80;62.00;;;;;;5039755;28;20214;-65
2020/12/13 11:50:07;;;;;;;1.00;0.90;;;12.70;62.00;;;;;;5043180;28;20229;-64
2020/12/13 11:52:33;;;;;;;0.97;0.97;;;12.70;62.10;;;;;;5037889;28;20657;-65
2020/12/13 11:55:00;;;;;;;0.80;0.80;;;12.70;62.10;;;;;;5040736;28;20222;-65
2020/12/13 11:57:26;;;;;;;0.87;0.87;;;12.60;62.00;;;;;;5038901;28;20221;-65
2020/12/13 11:59:53;;;;;;;0.70;0.70;;;12.60;61.90;;;;;;5033703;28;22162;-67
2020/12/13 12:02:19;;;;;;;0.93;0.90;;;12.60;61.80;;;;;;5036578;28;20758;-66
2020/12/13 12:04:46;;;;;;;0.80;0.80;;;12.60;61.90;;;;;;5041320;28;20717;-67
2020/12/13 12:07:13;;;;;;;1.00;0.90;;;12.60;61.90;;;;;;5039961;28;20277;-66
2020/12/13 12:09:40;;;;;;;0.90;0.90;;;12.60;61.90;;;;;;5044273;28;20243;-66
2020/12/13 12:12:06;;;;;;;1.50;0.87;;;12.60;61.90;;;;;;5043676;28;20202;-66
2020/12/13 12:14:33;;;;;;;0.83;0.83;;;12.50;61.80;;;;;;5040408;28;20347;-68
2020/12/13 12:17:03;;;;;;;1.17;0.90;;;12.50;61.80;;;;;;5037484;28;20208;-66
2020/12/13 12:19:30;;;;;;;1.07;0.87;;;12.50;61.60;;;;;;5042008;28;20226;-66
2020/12/13 12:21:56;;;;;;;0.80;0.80;;;12.50;61.70;;;;;;5033208;28;20217;-66
2020/12/13 12:24:23;;;;;;;0.83;0.83;;;12.50;61.90;;;;;;5042718;28;20679;-66
2020/12/13 12:26:51;;;;;;;1.00;1.00;;;12.50;62.00;;;;;;5039632;28;20619;-65
2020/12/13 12:29:19;;;;;;;0.83;0.83;;;12.50;62.10;;;;;;5040725;28;20222;-67
2020/12/13 12:31:46;;;;;;;0.80;0.80;;;12.50;62.20;;;;;;5042578;28;20678;-66
2020/12/13 12:34:12;;;;;;;0.80;0.70;;;12.40;62.20;;;;;;5039823;28;20295;-69
2020/12/13 12:36:38;;;;;;;0.90;0.90;;;12.40;62.30;;;;;;5038823;28;20309;-64
2020/12/13 12:39:06;;;;;;;0.90;0.90;;;12.40;62.10;;;;;;5040434;28;20424;-66
2020/12/13 12:41:34;;;;;;;1.00;1.00;;;12.40;62.10;;;;;;5036495;28;20206;-65
2020/12/13 12:44:01;;;;;;;1.13;1.03;;;12.40;62.20;;;;;;5037428;28;20634;-66
2020/12/13 12:46:28;;;;;;;0.87;0.77;;;12.40;62.30;;;;;;5040251;28;20216;-65
2020/12/13 12:48:56;;;;;;;1.20;1.00;;;12.40;62.30;;;;;;5041983;28;20611;-65
2020/12/13 12:51:22;;;;;;;1.00;1.00;;;12.40;62.30;;;;;;5041698;28;20228;-66
2020/12/13 12:53:49;;;;;;;1.00;1.00;;;12.40;62.20;;;;;;5039589;28;20205;-65
2020/12/13 12:56:16;;;;;;;0.93;0.93;;;12.40;62.30;;;;;;5038064;28;20233;-65
2020/12/13 12:58:49;;;;;;;1.30;1.20;;;12.40;62.30;;;;;;5038387;28;20221;-67